Station Historical Data
Daily Summary for July 18, 2017 Units:  Both    English   Metric
« Previous Day
Next Day »
Daily Weekly Monthly Yearly Custom
  High: Low: Average:
Temperature: 80.1 °F /  26.7 °C 60.8 °F /  16 °C 71.3 °F /  21.8 °C
Dew Point: 66.9 °F /  19.4 °C 56.1 °F /  13.4 °C 61.1 °F /  16.2 °C
Humidity: 93% 45% 72%
Wind Speed: 9.0mph /  14.5km/h - 2.3mph /  3.7km/h
Wind Gust: 12.0mph /  19.3km/h - -
Wind- - WSW
Pressure: 30.10 in /  1019.2 hPa 30.03 in /  1016.8 hPa -
Precipitation: 0.00 in /  0 mm    
Historical Graphs
 
 
Tabular Data for July 18, 2017
Time Temperature Dew Point Pressure Wind Wind Speed Wind Gust Humidity Rainfall Rate (Hourly)
00:04 67.2 °F /  19.6 °C 63.2 °F /  17.3 °C 30.03in /  1016.8hPa Calm     87% 0.00in /  0mm
00:09 67.1 °F /  19.5 °C 63.1 °F /  17.3 °C 30.03in /  1016.8hPa Calm     87% 0.00in /  0mm
00:14 67.0 °F /  19.4 °C 63.0 °F /  17.2 °C 30.03in /  1016.8hPa Calm     87% 0.00in /  0mm
00:19 66.8 °F /  19.3 °C 63.1 °F /  17.3 °C 30.03in /  1016.8hPa Calm     88% 0.00in /  0mm
00:24 66.4 °F /  19.1 °C 62.7 °F /  17.1 °C 30.03in /  1016.8hPa Calm     88% 0.00in /  0mm
00:29 66.2 °F /  19 °C 62.5 °F /  16.9 °C 30.03in /  1016.8hPa Calm     88% 0.00in /  0mm
00:34 66.0 °F /  18.9 °C 62.3 °F /  16.8 °C 30.03in /  1016.8hPa Calm     88% 0.00in /  0mm
00:39 65.9 °F /  18.8 °C 62.2 °F /  16.8 °C 30.03in /  1016.8hPa Calm     88% 0.00in /  0mm
00:44 65.8 °F /  18.8 °C 62.5 °F /  16.9 °C 30.03in /  1016.8hPa Calm     89% 0.00in /  0mm
00:49 65.5 °F /  18.6 °C 62.2 °F /  16.8 °C 30.03in /  1016.8hPa Calm     89% 0.00in /  0mm
00:54 65.4 °F /  18.6 °C 62.1 °F /  16.7 °C 30.03in /  1016.8hPa Calm     89% 0.00in /  0mm
00:59 65.3 °F /  18.5 °C 62.0 °F /  16.7 °C 30.03in /  1016.8hPa Calm     89% 0.00in /  0mm
01:04 65.1 °F /  18.4 °C 61.8 °F /  16.6 °C 30.03in /  1016.8hPa Calm     89% 0.00in /  0mm
01:09 65.0 °F /  18.3 °C 61.7 °F /  16.5 °C 30.03in /  1016.8hPa Calm     89% 0.00in /  0mm
01:14 64.8 °F /  18.2 °C 61.5 °F /  16.4 °C 30.03in /  1016.8hPa Calm     89% 0.00in /  0mm
01:19 64.8 °F /  18.2 °C 61.5 °F /  16.4 °C 30.03in /  1016.8hPa Calm     89% 0.00in /  0mm
01:24 64.7 °F /  18.2 °C 61.4 °F /  16.3 °C 30.03in /  1016.8hPa Calm     89% 0.00in /  0mm
01:29 64.5 °F /  18.1 °C 61.2 °F /  16.2 °C 30.03in /  1016.8hPa Calm     89% 0.00in /  0mm
01:34 64.3 °F /  17.9 °C 61.0 °F /  16.1 °C 30.03in /  1016.8hPa Calm     89% 0.00in /  0mm
01:39 64.2 °F /  17.9 °C 61.2 °F /  16.2 °C 30.03in /  1016.8hPa Calm     90% 0.00in /  0mm
01:44 64.2 °F /  17.9 °C 61.2 °F /  16.2 °C 30.03in /  1016.8hPa South 2.0mph /  3.2km/h 3.0mph /  4.8km/h 90% 0.00in /  0mm
01:49 64.1 °F /  17.8 °C 61.1 °F /  16.2 °C 30.03in /  1016.8hPa Calm   3.0mph /  4.8km/h 90% 0.00in /  0mm
01:54 63.8 °F /  17.7 °C 60.8 °F /  16 °C 30.03in /  1016.8hPa Calm     90% 0.00in /  0mm
01:59 63.8 °F /  17.7 °C 60.8 °F /  16 °C 30.03in /  1016.8hPa Calm     90% 0.00in /  0mm
02:04 63.7 °F /  17.6 °C 60.7 °F /  15.9 °C 30.03in /  1016.8hPa Calm   2.0mph /  3.2km/h 90% 0.00in /  0mm
02:09 63.7 °F /  17.6 °C 60.7 °F /  15.9 °C 30.03in /  1016.8hPa Calm   2.0mph /  3.2km/h 90% 0.00in /  0mm
02:14 63.5 °F /  17.5 °C 60.5 °F /  15.8 °C 30.03in /  1016.8hPa Calm   3.0mph /  4.8km/h 90% 0.00in /  0mm
02:19 63.6 °F /  17.6 °C 60.6 °F /  15.9 °C 30.03in /  1016.8hPa Calm   4.0mph /  6.4km/h 90% 0.00in /  0mm
02:24 63.5 °F /  17.5 °C 60.5 °F /  15.8 °C 30.03in /  1016.8hPa Calm   4.0mph /  6.4km/h 90% 0.00in /  0mm
02:29 63.2 °F /  17.3 °C 60.2 °F /  15.7 °C 30.03in /  1016.8hPa Calm     90% 0.00in /  0mm
02:34 63.1 °F /  17.3 °C 60.1 °F /  15.6 °C 30.03in /  1016.8hPa Calm     90% 0.00in /  0mm
02:39 63.0 °F /  17.2 °C 60.0 °F /  15.6 °C 30.03in /  1016.8hPa Calm     90% 0.00in /  0mm
02:44 62.9 °F /  17.2 °C 59.9 °F /  15.5 °C 30.03in /  1016.8hPa Calm   1.0mph /  1.6km/h 90% 0.00in /  0mm
02:49 62.7 °F /  17.1 °C 59.7 °F /  15.4 °C 30.03in /  1016.8hPa SSW 1.0mph /  1.6km/h 2.0mph /  3.2km/h 90% 0.00in /  0mm
02:54 62.7 °F /  17.1 °C 60.0 °F /  15.6 °C 30.03in /  1016.8hPa SSE 1.0mph /  1.6km/h 2.0mph /  3.2km/h 91% 0.00in /  0mm
02:59 62.8 °F /  17.1 °C 60.1 °F /  15.6 °C 30.03in /  1016.8hPa Calm   2.0mph /  3.2km/h 91% 0.00in /  0mm
03:04 62.8 °F /  17.1 °C 60.1 °F /  15.6 °C 30.03in /  1016.8hPa Calm   3.0mph /  4.8km/h 91% 0.00in /  0mm
03:09 62.8 °F /  17.1 °C 59.8 °F /  15.4 °C 30.03in /  1016.8hPa Calm   3.0mph /  4.8km/h 90% 0.00in /  0mm
03:14 62.8 °F /  17.1 °C 60.1 °F /  15.6 °C 30.04in /  1017.2hPa Calm   3.0mph /  4.8km/h 91% 0.00in /  0mm
03:19 62.6 °F /  17 °C 59.6 °F /  15.3 °C 30.03in /  1016.8hPa Calm     90% 0.00in /  0mm
03:24 62.7 °F /  17.1 °C 60.0 °F /  15.6 °C 30.03in /  1016.8hPa Calm     91% 0.00in /  0mm
03:29 62.7 °F /  17.1 °C 60.0 °F /  15.6 °C 30.04in /  1017.2hPa Calm     91% 0.00in /  0mm
03:34 62.6 °F /  17 °C 59.6 °F /  15.3 °C 30.03in /  1016.8hPa Calm     90% 0.00in /  0mm
03:39 62.4 °F /  16.9 °C 59.7 °F /  15.4 °C 30.03in /  1016.8hPa Calm     91% 0.00in /  0mm
03:44 62.4 °F /  16.9 °C 59.7 °F /  15.4 °C 30.03in /  1016.8hPa Calm   2.0mph /  3.2km/h 91% 0.00in /  0mm
03:49 62.4 °F /  16.9 °C 59.7 °F /  15.4 °C 30.03in /  1016.8hPa Calm   1.0mph /  1.6km/h 91% 0.00in /  0mm
03:54 62.4 °F /  16.9 °C 59.7 °F /  15.4 °C 30.03in /  1016.8hPa Calm     91% 0.00in /  0mm
03:59 62.5 °F /  16.9 °C 59.8 °F /  15.4 °C 30.03in /  1016.8hPa Calm     91% 0.00in /  0mm
04:04 62.5 °F /  16.9 °C 59.8 °F /  15.4 °C 30.03in /  1016.8hPa Calm     91% 0.00in /  0mm
04:09 62.4 °F /  16.9 °C 59.7 °F /  15.4 °C 30.04in /  1017.2hPa Calm     91% 0.00in /  0mm
04:14 62.4 °F /  16.9 °C 59.7 °F /  15.4 °C 30.04in /  1017.2hPa Calm     91% 0.00in /  0mm
04:19 62.4 °F /  16.9 °C 59.7 °F /  15.4 °C 30.04in /  1017.2hPa Calm   2.0mph /  3.2km/h 91% 0.00in /  0mm
04:24 62.4 °F /  16.9 °C 59.7 °F /  15.4 °C 30.03in /  1016.8hPa Calm   2.0mph /  3.2km/h 91% 0.00in /  0mm
04:29 62.4 °F /  16.9 °C 59.7 °F /  15.4 °C 30.03in /  1016.8hPa Calm     91% 0.00in /  0mm
04:34 62.3 °F /  16.8 °C 59.6 °F /  15.3 °C 30.03in /  1016.8hPa Calm     91% 0.00in /  0mm
04:39 62.3 °F /  16.8 °C 59.6 °F /  15.3 °C 30.03in /  1016.8hPa Calm   2.0mph /  3.2km/h 91% 0.00in /  0mm
04:44 62.3 °F /  16.8 °C 59.6 °F /  15.3 °C 30.03in /  1016.8hPa Calm   2.0mph /  3.2km/h 91% 0.00in /  0mm
04:49 62.2 °F /  16.8 °C 59.5 °F /  15.3 °C 30.03in /  1016.8hPa Calm   2.0mph /  3.2km/h 91% 0.00in /  0mm
04:54 62.1 °F /  16.7 °C 59.4 °F /  15.2 °C 30.03in /  1016.8hPa Calm     91% 0.00in /  0mm
04:59 62.1 °F /  16.7 °C 59.4 °F /  15.2 °C 30.03in /  1016.8hPa Calm     91% 0.00in /  0mm
05:04 62.0 °F /  16.7 °C 59.3 °F /  15.2 °C 30.04in /  1017.2hPa Calm   1.0mph /  1.6km/h 91% 0.00in /  0mm
05:09 61.8 °F /  16.6 °C 59.1 °F /  15.1 °C 30.04in /  1017.2hPa Calm     91% 0.00in /  0mm
05:14 61.8 °F /  16.6 °C 59.1 °F /  15.1 °C 30.04in /  1017.2hPa Calm     91% 0.00in /  0mm
05:19 61.6 °F /  16.4 °C 59.3 °F /  15.2 °C 30.04in /  1017.2hPa Calm     92% 0.00in /  0mm
05:24 61.3 °F /  16.3 °C 59.0 °F /  15 °C 30.04in /  1017.2hPa Calm     92% 0.00in /  0mm
05:29 61.1 °F /  16.2 °C 58.5 °F /  14.7 °C 30.05in /  1017.5hPa Calm     91% 0.00in /  0mm
05:34 60.9 °F /  16.1 °C 58.6 °F /  14.8 °C 30.05in /  1017.5hPa Calm     92% 0.00in /  0mm
05:39 60.9 °F /  16.1 °C 58.6 °F /  14.8 °C 30.05in /  1017.5hPa Calm     92% 0.00in /  0mm
05:44 60.8 °F /  16 °C 58.5 °F /  14.7 °C 30.05in /  1017.5hPa Calm     92% 0.00in /  0mm
05:49 60.9 °F /  16.1 °C 58.6 °F /  14.8 °C 30.05in /  1017.5hPa Calm     92% 0.00in /  0mm
05:54 61.1 °F /  16.2 °C 58.8 °F /  14.9 °C 30.05in /  1017.5hPa Calm     92% 0.00in /  0mm
05:59 61.3 °F /  16.3 °C 59.0 °F /  15 °C 30.05in /  1017.5hPa Calm     92% 0.00in /  0mm
06:04 61.4 °F /  16.3 °C 59.1 °F /  15.1 °C 30.06in /  1017.8hPa Calm     92% 0.00in /  0mm
06:09 61.6 °F /  16.4 °C 59.6 °F /  15.3 °C 30.06in /  1017.8hPa Calm   1.0mph /  1.6km/h 93% 0.00in /  0mm
06:14 62.1 °F /  16.7 °C 60.1 °F /  15.6 °C 30.06in /  1017.8hPa Calm   3.0mph /  4.8km/h 93% 0.00in /  0mm
06:19 62.5 °F /  16.9 °C 60.4 °F /  15.8 °C 30.06in /  1017.8hPa Calm   2.0mph /  3.2km/h 93% 0.00in /  0mm
06:24 62.7 °F /  17.1 °C 60.6 °F /  15.9 °C 30.06in /  1017.8hPa Calm   3.0mph /  4.8km/h 93% 0.00in /  0mm
06:29 63.0 °F /  17.2 °C 60.9 °F /  16.1 °C 30.06in /  1017.8hPa Calm   3.0mph /  4.8km/h 93% 0.00in /  0mm
06:34 63.2 °F /  17.3 °C 60.8 °F /  16 °C 30.06in /  1017.8hPa Calm   4.0mph /  6.4km/h 92% 0.00in /  0mm
06:39 63.4 °F /  17.4 °C 61.0 °F /  16.1 °C 30.06in /  1017.8hPa Calm   3.0mph /  4.8km/h 92% 0.00in /  0mm
06:44 63.5 °F /  17.5 °C 61.1 °F /  16.2 °C 30.07in /  1018.2hPa South 1.0mph /  1.6km/h 4.0mph /  6.4km/h 92% 0.00in /  0mm
06:49 63.6 °F /  17.6 °C 61.2 °F /  16.2 °C 30.06in /  1017.8hPa South 2.0mph /  3.2km/h 4.0mph /  6.4km/h 92% 0.00in /  0mm
06:54 63.7 °F /  17.6 °C 61.3 °F /  16.3 °C 30.06in /  1017.8hPa SSW 2.0mph /  3.2km/h 4.0mph /  6.4km/h 92% 0.00in /  0mm
06:59 64.0 °F /  17.8 °C 61.3 °F /  16.3 °C 30.06in /  1017.8hPa South 2.0mph /  3.2km/h 5.0mph /  8km/h 91% 0.00in /  0mm
07:04 64.2 °F /  17.9 °C 61.5 °F /  16.4 °C 30.07in /  1018.2hPa SW 1.0mph /  1.6km/h 6.0mph /  9.7km/h 91% 0.00in /  0mm
07:09 64.4 °F /  18 °C 61.7 °F /  16.5 °C 30.07in /  1018.2hPa Calm   5.0mph /  8km/h 91% 0.00in /  0mm
07:14 64.6 °F /  18.1 °C 61.9 °F /  16.6 °C 30.07in /  1018.2hPa SW 1.0mph /  1.6km/h 5.0mph /  8km/h 91% 0.00in /  0mm
07:19 64.9 °F /  18.3 °C 62.2 °F /  16.8 °C 30.07in /  1018.2hPa Calm     91% 0.00in /  0mm
07:24 65.2 °F /  18.4 °C 62.2 °F /  16.8 °C 30.07in /  1018.2hPa Calm     90% 0.00in /  0mm
07:29 65.6 °F /  18.7 °C 62.6 °F /  17 °C 30.08in /  1018.5hPa Calm   2.0mph /  3.2km/h 90% 0.00in /  0mm
07:34 66.0 °F /  18.9 °C 63.0 °F /  17.2 °C 30.08in /  1018.5hPa Calm   3.0mph /  4.8km/h 90% 0.00in /  0mm
07:39 66.1 °F /  18.9 °C 62.8 °F /  17.1 °C 30.08in /  1018.5hPa South 3.0mph /  4.8km/h 6.0mph /  9.7km/h 89% 0.00in /  0mm
07:44 66.5 °F /  19.2 °C 62.8 °F /  17.1 °C 30.08in /  1018.5hPa SW 2.0mph /  3.2km/h 6.0mph /  9.7km/h 88% 0.00in /  0mm
07:49 66.5 °F /  19.2 °C 62.8 °F /  17.1 °C 30.08in /  1018.5hPa SW 3.0mph /  4.8km/h 6.0mph /  9.7km/h 88% 0.00in /  0mm
07:54 66.9 °F /  19.4 °C 62.9 °F /  17.2 °C 30.08in /  1018.5hPa SSW 2.0mph /  3.2km/h 4.0mph /  6.4km/h 87% 0.00in /  0mm
07:59 67.2 °F /  19.6 °C 63.2 °F /  17.3 °C 30.08in /  1018.5hPa Calm   5.0mph /  8km/h 87% 0.00in /  0mm
08:04 67.5 °F /  19.7 °C 63.5 °F /  17.5 °C 30.08in /  1018.5hPa SSW 3.0mph /  4.8km/h 5.0mph /  8km/h 87% 0.00in /  0mm
08:09 68.0 °F /  20 °C 64.0 °F /  17.8 °C 30.08in /  1018.5hPa SSW 2.0mph /  3.2km/h 4.0mph /  6.4km/h 87% 0.00in /  0mm
08:14 68.4 °F /  20.2 °C 64.0 °F /  17.8 °C 30.09in /  1018.8hPa SSW 2.0mph /  3.2km/h 4.0mph /  6.4km/h 86% 0.00in /  0mm
08:19 68.7 °F /  20.4 °C 64.3 °F /  17.9 °C 30.08in /  1018.5hPa SW 2.0mph /  3.2km/h 6.0mph /  9.7km/h 86% 0.00in /  0mm
08:24 69.1 °F /  20.6 °C 64.4 °F /  18 °C 30.09in /  1018.8hPa SW 3.0mph /  4.8km/h 6.0mph /  9.7km/h 85% 0.00in /  0mm
08:29 69.7 °F /  20.9 °C 65.0 °F /  18.3 °C 30.09in /  1018.8hPa SW 3.0mph /  4.8km/h 6.0mph /  9.7km/h 85% 0.00in /  0mm
08:34 69.5 °F /  20.8 °C 64.5 °F /  18.1 °C 30.09in /  1018.8hPa SW 3.0mph /  4.8km/h 7.0mph /  11.3km/h 84% 0.00in /  0mm
08:39 69.5 °F /  20.8 °C 64.5 °F /  18.1 °C 30.09in /  1018.8hPa SW 4.0mph /  6.4km/h 7.0mph /  11.3km/h 84% 0.00in /  0mm
08:44 70.1 °F /  21.2 °C 65.0 °F /  18.3 °C 30.09in /  1018.8hPa SW 3.0mph /  4.8km/h 8.0mph /  12.9km/h 84% 0.00in /  0mm
08:49 70.4 °F /  21.3 °C 65.0 °F /  18.3 °C 30.09in /  1018.8hPa SW 2.0mph /  3.2km/h 8.0mph /  12.9km/h 83% 0.00in /  0mm
08:54 70.5 °F /  21.4 °C 65.1 °F /  18.4 °C 30.09in /  1018.8hPa West 5.0mph /  8km/h 6.0mph /  9.7km/h 83% 0.00in /  0mm
08:59 70.3 °F /  21.3 °C 64.5 °F /  18.1 °C 30.09in /  1018.8hPa South 4.0mph /  6.4km/h 6.0mph /  9.7km/h 82% 0.00in /  0mm
09:04 70.3 °F /  21.3 °C 64.9 °F /  18.3 °C 30.09in /  1018.8hPa WSW 2.0mph /  3.2km/h 6.0mph /  9.7km/h 83% 0.00in /  0mm
09:09 71.3 °F /  21.8 °C 65.5 °F /  18.6 °C 30.09in /  1018.8hPa SSW 4.0mph /  6.4km/h 7.0mph /  11.3km/h 82% 0.00in /  0mm
09:14 71.9 °F /  22.2 °C 65.4 °F /  18.6 °C 30.09in /  1018.8hPa SW 3.0mph /  4.8km/h 7.0mph /  11.3km/h 80% 0.00in /  0mm
09:19 72.3 °F /  22.4 °C 66.1 °F /  18.9 °C 30.09in /  1018.8hPa WSW 3.0mph /  4.8km/h 6.0mph /  9.7km/h 81% 0.00in /  0mm
09:24 72.8 °F /  22.7 °C 66.3 °F /  19.1 °C 30.09in /  1018.8hPa SW 3.0mph /  4.8km/h 7.0mph /  11.3km/h 80% 0.00in /  0mm
09:29 73.4 °F /  23 °C 66.1 °F /  18.9 °C 30.09in /  1018.8hPa SW 3.0mph /  4.8km/h 7.0mph /  11.3km/h 78% 0.00in /  0mm
09:34 72.7 °F /  22.6 °C 65.4 °F /  18.6 °C 30.09in /  1018.8hPa WSW 3.0mph /  4.8km/h 9.0mph /  14.5km/h 78% 0.00in /  0mm
09:39 72.1 °F /  22.3 °C 64.9 °F /  18.3 °C 30.09in /  1018.8hPa WNW 4.0mph /  6.4km/h 8.0mph /  12.9km/h 78% 0.00in /  0mm
09:44 72.4 °F /  22.4 °C 65.9 °F /  18.8 °C 30.09in /  1018.8hPa SSW 6.0mph /  9.7km/h 9.0mph /  14.5km/h 80% 0.00in /  0mm
09:49 73.4 °F /  23 °C 66.1 °F /  18.9 °C 30.09in /  1018.8hPa WSW 4.0mph /  6.4km/h 9.0mph /  14.5km/h 78% 0.00in /  0mm
09:54 73.0 °F /  22.8 °C 66.1 °F /  18.9 °C 30.09in /  1018.8hPa WNW 8.0mph /  12.9km/h 10.0mph /  16.1km/h 79% 0.00in /  0mm
09:59 72.2 °F /  22.3 °C 65.0 °F /  18.3 °C 30.09in /  1018.8hPa WSW 4.0mph /  6.4km/h 10.0mph /  16.1km/h 78% 0.00in /  0mm
10:04 73.2 °F /  22.9 °C 66.3 °F /  19.1 °C 30.10in /  1019.2hPa WSW 3.0mph /  4.8km/h 8.0mph /  12.9km/h 79% 0.00in /  0mm
10:09 74.4 °F /  23.6 °C 66.3 °F /  19.1 °C 30.10in /  1019.2hPa WSW 5.0mph /  8km/h 7.0mph /  11.3km/h 76% 0.00in /  0mm
10:14 74.1 °F /  23.4 °C 66.0 °F /  18.9 °C 30.09in /  1018.8hPa WSW 4.0mph /  6.4km/h 8.0mph /  12.9km/h 76% 0.00in /  0mm
10:19 74.7 °F /  23.7 °C 65.9 °F /  18.8 °C 30.09in /  1018.8hPa SW 4.0mph /  6.4km/h 11.0mph /  17.7km/h 74% 0.00in /  0mm
10:24 75.2 °F /  24 °C 66.7 °F /  19.3 °C 30.09in /  1018.8hPa SW 3.0mph /  4.8km/h 8.0mph /  12.9km/h 75% 0.00in /  0mm
10:29 75.3 °F /  24.1 °C 66.0 °F /  18.9 °C 30.09in /  1018.8hPa West 2.0mph /  3.2km/h 7.0mph /  11.3km/h 73% 0.00in /  0mm
10:34 75.9 °F /  24.4 °C 65.8 °F /  18.8 °C 30.09in /  1018.8hPa SW 4.0mph /  6.4km/h 7.0mph /  11.3km/h 71% 0.00in /  0mm
10:39 75.6 °F /  24.2 °C 65.9 °F /  18.8 °C 30.09in /  1018.8hPa West 7.0mph /  11.3km/h 9.0mph /  14.5km/h 72% 0.00in /  0mm
10:44 75.8 °F /  24.3 °C 66.9 °F /  19.4 °C 30.09in /  1018.8hPa WSW 5.0mph /  8km/h 9.0mph /  14.5km/h 74% 0.00in /  0mm
10:49 75.9 °F /  24.4 °C 65.8 °F /  18.8 °C 30.09in /  1018.8hPa WSW 5.0mph /  8km/h 10.0mph /  16.1km/h 71% 0.00in /  0mm
10:54 74.6 °F /  23.7 °C 65.0 °F /  18.3 °C 30.09in /  1018.8hPa WSW 5.0mph /  8km/h 10.0mph /  16.1km/h 72% 0.00in /  0mm
10:59 74.1 °F /  23.4 °C 65.3 °F /  18.5 °C 30.09in /  1018.8hPa SW 4.0mph /  6.4km/h 9.0mph /  14.5km/h 74% 0.00in /  0mm
11:04 74.3 °F /  23.5 °C 65.5 °F /  18.6 °C 30.09in /  1018.8hPa West 3.0mph /  4.8km/h 7.0mph /  11.3km/h 74% 0.00in /  0mm
11:09 75.4 °F /  24.1 °C 65.7 °F /  18.7 °C 30.09in /  1018.8hPa WSW 6.0mph /  9.7km/h 9.0mph /  14.5km/h 72% 0.00in /  0mm
11:14 76.1 °F /  24.5 °C 65.6 °F /  18.7 °C 30.09in /  1018.8hPa WSW 5.0mph /  8km/h 9.0mph /  14.5km/h 70% 0.00in /  0mm
11:19 75.5 °F /  24.2 °C 64.6 °F /  18.1 °C 30.09in /  1018.8hPa SW 5.0mph /  8km/h 10.0mph /  16.1km/h 69% 0.00in /  0mm
11:24 76.4 °F /  24.7 °C 65.1 °F /  18.4 °C 30.09in /  1018.8hPa West 4.0mph /  6.4km/h 9.0mph /  14.5km/h 68% 0.00in /  0mm
11:29 76.8 °F /  24.9 °C 64.6 °F /  18.1 °C 30.09in /  1018.8hPa SW 5.0mph /  8km/h 10.0mph /  16.1km/h 66% 0.00in /  0mm
11:34 77.1 °F /  25.1 °C 64.0 °F /  17.8 °C 30.09in /  1018.8hPa WSW 4.0mph /  6.4km/h 11.0mph /  17.7km/h 64% 0.00in /  0mm
11:39 77.3 °F /  25.2 °C 62.8 °F /  17.1 °C 30.09in /  1018.8hPa WSW 5.0mph /  8km/h 11.0mph /  17.7km/h 61% 0.00in /  0mm
11:44 77.4 °F /  25.2 °C 62.9 °F /  17.2 °C 30.09in /  1018.8hPa WSW 5.0mph /  8km/h 11.0mph /  17.7km/h 61% 0.00in /  0mm
11:49 77.8 °F /  25.4 °C 62.8 °F /  17.1 °C 30.09in /  1018.8hPa WSW 5.0mph /  8km/h 10.0mph /  16.1km/h 60% 0.00in /  0mm
11:54 77.6 °F /  25.3 °C 61.7 °F /  16.5 °C 30.09in /  1018.8hPa SW 4.0mph /  6.4km/h 9.0mph /  14.5km/h 58% 0.00in /  0mm
11:59 77.6 °F /  25.3 °C 60.2 °F /  15.7 °C 30.09in /  1018.8hPa SW 4.0mph /  6.4km/h 8.0mph /  12.9km/h 55% 0.00in /  0mm
12:04 77.6 °F /  25.3 °C 61.2 °F /  16.2 °C 30.09in /  1018.8hPa SW 5.0mph /  8km/h 10.0mph /  16.1km/h 57% 0.00in /  0mm
12:09 78.0 °F /  25.6 °C 60.5 °F /  15.8 °C 30.09in /  1018.8hPa SW 3.0mph /  4.8km/h 10.0mph /  16.1km/h 55% 0.00in /  0mm
12:19 77.8 °F /  25.4 °C 61.3 °F /  16.3 °C 30.09in /  1018.8hPa WSW 2.0mph /  3.2km/h 11.0mph /  17.7km/h 57% 0.00in /  0mm
12:24 78.0 °F /  25.6 °C 60.5 °F /  15.8 °C 30.09in /  1018.8hPa SW 6.0mph /  9.7km/h 10.0mph /  16.1km/h 55% 0.00in /  0mm
12:29 78.5 °F /  25.8 °C 57.7 °F /  14.3 °C 30.09in /  1018.8hPa SW 4.0mph /  6.4km/h 8.0mph /  12.9km/h 49% 0.00in /  0mm
12:34 78.9 °F /  26.1 °C 60.3 °F /  15.7 °C 30.08in /  1018.5hPa WNW 3.0mph /  4.8km/h 9.0mph /  14.5km/h 53% 0.00in /  0mm
12:39 78.7 °F /  25.9 °C 62.2 °F /  16.8 °C 30.09in /  1018.8hPa SSW 4.0mph /  6.4km/h 11.0mph /  17.7km/h 57% 0.00in /  0mm
12:44 78.5 °F /  25.8 °C 59.9 °F /  15.5 °C 30.08in /  1018.5hPa WSW 5.0mph /  8km/h 11.0mph /  17.7km/h 53% 0.00in /  0mm
12:49 79.0 °F /  26.1 °C 60.9 °F /  16.1 °C 30.09in /  1018.8hPa West 5.0mph /  8km/h 11.0mph /  17.7km/h 54% 0.00in /  0mm
12:54 78.7 °F /  25.9 °C 60.1 °F /  15.6 °C 30.09in /  1018.8hPa West 5.0mph /  8km/h 11.0mph /  17.7km/h 53% 0.00in /  0mm
12:59 78.9 °F /  26.1 °C 59.8 °F /  15.4 °C 30.09in /  1018.8hPa WSW 4.0mph /  6.4km/h 9.0mph /  14.5km/h 52% 0.00in /  0mm
13:04 78.4 °F /  25.8 °C 59.9 °F /  15.5 °C 30.09in /  1018.8hPa NW 2.0mph /  3.2km/h 11.0mph /  17.7km/h 53% 0.00in /  0mm
13:09 79.3 °F /  26.3 °C 61.2 °F /  16.2 °C 30.09in /  1018.8hPa West 4.0mph /  6.4km/h 8.0mph /  12.9km/h 54% 0.00in /  0mm
13:14 79.1 °F /  26.2 °C 61.0 °F /  16.1 °C 30.09in /  1018.8hPa WSW 5.0mph /  8km/h 10.0mph /  16.1km/h 54% 0.00in /  0mm
13:19 79.0 °F /  26.1 °C 59.9 °F /  15.5 °C 30.09in /  1018.8hPa WSW 5.0mph /  8km/h 10.0mph /  16.1km/h 52% 0.00in /  0mm
13:24 79.3 °F /  26.3 °C 61.2 °F /  16.2 °C 30.08in /  1018.5hPa SW 6.0mph /  9.7km/h 11.0mph /  17.7km/h 54% 0.00in /  0mm
13:29 79.3 °F /  26.3 °C 60.7 °F /  15.9 °C 30.08in /  1018.5hPa SW 6.0mph /  9.7km/h 11.0mph /  17.7km/h 53% 0.00in /  0mm
13:34 79.3 °F /  26.3 °C 60.1 °F /  15.6 °C 30.08in /  1018.5hPa WSW 5.0mph /  8km/h 12.0mph /  19.3km/h 52% 0.00in /  0mm
13:39 79.1 °F /  26.2 °C 57.7 °F /  14.3 °C 30.08in /  1018.5hPa SW 5.0mph /  8km/h 11.0mph /  17.7km/h 48% 0.00in /  0mm
13:44 79.0 °F /  26.1 °C 59.3 °F /  15.2 °C 30.08in /  1018.5hPa West 6.0mph /  9.7km/h 10.0mph /  16.1km/h 51% 0.00in /  0mm
13:49 78.4 °F /  25.8 °C 58.8 °F /  14.9 °C 30.08in /  1018.5hPa WSW 5.0mph /  8km/h 11.0mph /  17.7km/h 51% 0.00in /  0mm
13:54 78.5 °F /  25.8 °C 58.9 °F /  14.9 °C 30.08in /  1018.5hPa WNW 2.0mph /  3.2km/h 11.0mph /  17.7km/h 51% 0.00in /  0mm
13:59 78.6 °F /  25.9 °C 59.0 °F /  15 °C 30.08in /  1018.5hPa West 7.0mph /  11.3km/h 12.0mph /  19.3km/h 51% 0.00in /  0mm
14:04 78.9 °F /  26.1 °C 57.5 °F /  14.2 °C 30.08in /  1018.5hPa West 6.0mph /  9.7km/h 11.0mph /  17.7km/h 48% 0.00in /  0mm
14:09 78.8 °F /  26 °C 56.9 °F /  13.8 °C 30.08in /  1018.5hPa South 5.0mph /  8km/h 11.0mph /  17.7km/h 47% 0.00in /  0mm
14:14 78.9 °F /  26.1 °C 58.1 °F /  14.5 °C 30.08in /  1018.5hPa SW 6.0mph /  9.7km/h 12.0mph /  19.3km/h 49% 0.00in /  0mm
14:19 78.8 °F /  26 °C 56.9 °F /  13.8 °C 30.08in /  1018.5hPa SW 6.0mph /  9.7km/h 12.0mph /  19.3km/h 47% 0.00in /  0mm
14:24 79.1 °F /  26.2 °C 57.7 °F /  14.3 °C 30.08in /  1018.5hPa WSW 6.0mph /  9.7km/h 11.0mph /  17.7km/h 48% 0.00in /  0mm
14:29 79.2 °F /  26.2 °C 56.6 °F /  13.7 °C 30.08in /  1018.5hPa SW 4.0mph /  6.4km/h 10.0mph /  16.1km/h 46% 0.00in /  0mm
14:34 79.3 °F /  26.3 °C 57.3 °F /  14.1 °C 30.08in /  1018.5hPa WSW 5.0mph /  8km/h 10.0mph /  16.1km/h 47% 0.00in /  0mm
14:39 79.3 °F /  26.3 °C 57.9 °F /  14.4 °C 30.07in /  1018.2hPa West 3.0mph /  4.8km/h 9.0mph /  14.5km/h 48% 0.00in /  0mm
14:44 79.1 °F /  26.2 °C 58.9 °F /  14.9 °C 30.07in /  1018.2hPa West 5.0mph /  8km/h 10.0mph /  16.1km/h 50% 0.00in /  0mm
14:49 79.3 °F /  26.3 °C 56.1 °F /  13.4 °C 30.07in /  1018.2hPa WSW 4.0mph /  6.4km/h 9.0mph /  14.5km/h 45% 0.00in /  0mm
14:54 79.8 °F /  26.6 °C 57.2 °F /  14 °C 30.08in /  1018.5hPa SW 8.0mph /  12.9km/h 10.0mph /  16.1km/h 46% 0.00in /  0mm
14:59 79.0 °F /  26.1 °C 57.0 °F /  13.9 °C 30.08in /  1018.5hPa WSW 8.0mph /  12.9km/h 12.0mph /  19.3km/h 47% 0.00in /  0mm
15:04 78.9 °F /  26.1 °C 57.5 °F /  14.2 °C 30.07in /  1018.2hPa WSW 7.0mph /  11.3km/h 10.0mph /  16.1km/h 48% 0.00in /  0mm
15:09 79.3 °F /  26.3 °C 57.3 °F /  14.1 °C 30.07in /  1018.2hPa West 6.0mph /  9.7km/h 9.0mph /  14.5km/h 47% 0.00in /  0mm
15:14 80.0 °F /  26.7 °C 59.7 °F /  15.4 °C 30.07in /  1018.2hPa West 6.0mph /  9.7km/h 8.0mph /  12.9km/h 50% 0.00in /  0mm
15:19 80.1 °F /  26.7 °C 60.3 °F /  15.7 °C 30.07in /  1018.2hPa WSW 4.0mph /  6.4km/h 9.0mph /  14.5km/h 51% 0.00in /  0mm
15:24 79.4 °F /  26.3 °C 58.0 °F /  14.4 °C 30.07in /  1018.2hPa WSW 5.0mph /  8km/h 9.0mph /  14.5km/h 48% 0.00in /  0mm
15:29 80.0 °F /  26.7 °C 59.7 °F /  15.4 °C 30.07in /  1018.2hPa WSW 4.0mph /  6.4km/h 8.0mph /  12.9km/h 50% 0.00in /  0mm
15:34 80.0 °F /  26.7 °C 61.3 °F /  16.3 °C 30.07in /  1018.2hPa SW 6.0mph /  9.7km/h 10.0mph /  16.1km/h 53% 0.00in /  0mm
15:39 79.4 °F /  26.3 °C 59.1 °F /  15.1 °C 30.06in /  1017.8hPa West 3.0mph /  4.8km/h 7.0mph /  11.3km/h 50% 0.00in /  0mm
15:44 79.2 °F /  26.2 °C 60.1 °F /  15.6 °C 30.06in /  1017.8hPa SW 4.0mph /  6.4km/h 8.0mph /  12.9km/h 52% 0.00in /  0mm
15:49 79.3 °F /  26.3 °C 58.5 °F /  14.7 °C 30.06in /  1017.8hPa WSW 5.0mph /  8km/h 9.0mph /  14.5km/h 49% 0.00in /  0mm
15:54 79.4 °F /  26.3 °C 59.7 °F /  15.4 °C 30.06in /  1017.8hPa SW 5.0mph /  8km/h 9.0mph /  14.5km/h 51% 0.00in /  0mm
15:59 79.3 °F /  26.3 °C 59.0 °F /  15 °C 30.06in /  1017.8hPa West 4.0mph /  6.4km/h 9.0mph /  14.5km/h 50% 0.00in /  0mm
16:04 79.2 °F /  26.2 °C 60.1 °F /  15.6 °C 30.05in /  1017.5hPa South 5.0mph /  8km/h 7.0mph /  11.3km/h 52% 0.00in /  0mm
16:09 79.7 °F /  26.5 °C 60.0 °F /  15.6 °C 30.05in /  1017.5hPa SW 5.0mph /  8km/h 6.0mph /  9.7km/h 51% 0.00in /  0mm
16:14 79.6 °F /  26.4 °C 59.3 °F /  15.2 °C 30.06in /  1017.8hPa WSW 4.0mph /  6.4km/h 7.0mph /  11.3km/h 50% 0.00in /  0mm
16:19 79.2 °F /  26.2 °C 59.0 °F /  15 °C 30.06in /  1017.8hPa SW 3.0mph /  4.8km/h 7.0mph /  11.3km/h 50% 0.00in /  0mm
16:24 79.1 °F /  26.2 °C 59.4 °F /  15.2 °C 30.06in /  1017.8hPa SW 5.0mph /  8km/h 7.0mph /  11.3km/h 51% 0.00in /  0mm
16:29 79.9 °F /  26.6 °C 60.2 °F /  15.7 °C 30.06in /  1017.8hPa WSW 4.0mph /  6.4km/h 7.0mph /  11.3km/h 51% 0.00in /  0mm
16:34 79.4 °F /  26.3 °C 58.6 °F /  14.8 °C 30.06in /  1017.8hPa WSW 3.0mph /  4.8km/h 10.0mph /  16.1km/h 49% 0.00in /  0mm
16:39 79.4 °F /  26.3 °C 59.7 °F /  15.4 °C 30.06in /  1017.8hPa SW 3.0mph /  4.8km/h 7.0mph /  11.3km/h 51% 0.00in /  0mm
16:44 79.9 °F /  26.6 °C 61.2 °F /  16.2 °C 30.06in /  1017.8hPa West 4.0mph /  6.4km/h 7.0mph /  11.3km/h 53% 0.00in /  0mm
16:49 79.9 °F /  26.6 °C 61.2 °F /  16.2 °C 30.06in /  1017.8hPa West 3.0mph /  4.8km/h 8.0mph /  12.9km/h 53% 0.00in /  0mm
16:54 79.7 °F /  26.5 °C 62.1 °F /  16.7 °C 30.05in /  1017.5hPa West 3.0mph /  4.8km/h 8.0mph /  12.9km/h 55% 0.00in /  0mm
16:59 79.6 °F /  26.4 °C 61.0 °F /  16.1 °C 30.06in /  1017.8hPa WSW 3.0mph /  4.8km/h 9.0mph /  14.5km/h 53% 0.00in /  0mm
17:04 79.4 °F /  26.3 °C 60.8 °F /  16 °C 30.05in /  1017.5hPa SW 5.0mph /  8km/h 9.0mph /  14.5km/h 53% 0.00in /  0mm
17:09 79.5 °F /  26.4 °C 62.4 °F /  16.9 °C 30.05in /  1017.5hPa WSW 5.0mph /  8km/h 9.0mph /  14.5km/h 56% 0.00in /  0mm
17:14 79.1 °F /  26.2 °C 61.0 °F /  16.1 °C 30.05in /  1017.5hPa SW 2.0mph /  3.2km/h 8.0mph /  12.9km/h 54% 0.00in /  0mm
17:19 79.3 °F /  26.3 °C 60.1 °F /  15.6 °C 30.05in /  1017.5hPa SW 4.0mph /  6.4km/h 8.0mph /  12.9km/h 52% 0.00in /  0mm
17:24 79.3 °F /  26.3 °C 60.7 °F /  15.9 °C 30.05in /  1017.5hPa WSW 7.0mph /  11.3km/h 9.0mph /  14.5km/h 53% 0.00in /  0mm
17:29 78.7 °F /  25.9 °C 60.1 °F /  15.6 °C 30.04in /  1017.2hPa West 5.0mph /  8km/h 8.0mph /  12.9km/h 53% 0.00in /  0mm
17:34 78.7 °F /  25.9 °C 61.2 °F /  16.2 °C 30.05in /  1017.5hPa SW 9.0mph /  14.5km/h 9.0mph /  14.5km/h 55% 0.00in /  0mm
17:39 79.1 °F /  26.2 °C 61.0 °F /  16.1 °C 30.05in /  1017.5hPa SW 4.0mph /  6.4km/h 9.0mph /  14.5km/h 54% 0.00in /  0mm
17:44 78.9 °F /  26.1 °C 60.8 °F /  16 °C 30.04in /  1017.2hPa SW 5.0mph /  8km/h 9.0mph /  14.5km/h 54% 0.00in /  0mm
17:49 78.5 °F /  25.8 °C 61.0 °F /  16.1 °C 30.04in /  1017.2hPa SW 4.0mph /  6.4km/h 8.0mph /  12.9km/h 55% 0.00in /  0mm
17:54 78.6 °F /  25.9 °C 61.1 °F /  16.2 °C 30.04in /  1017.2hPa SW 4.0mph /  6.4km/h 8.0mph /  12.9km/h 55% 0.00in /  0mm
17:59 78.6 °F /  25.9 °C 61.1 °F /  16.2 °C 30.04in /  1017.2hPa SW 4.0mph /  6.4km/h 9.0mph /  14.5km/h 55% 0.00in /  0mm
18:04 78.3 °F /  25.7 °C 62.3 °F /  16.8 °C 30.04in /  1017.2hPa SW 5.0mph /  8km/h 9.0mph /  14.5km/h 58% 0.00in /  0mm
18:09 78.4 °F /  25.8 °C 60.9 °F /  16.1 °C 30.04in /  1017.2hPa WSW 4.0mph /  6.4km/h 9.0mph /  14.5km/h 55% 0.00in /  0mm
18:14 78.3 °F /  25.7 °C 60.8 °F /  16 °C 30.04in /  1017.2hPa WSW 4.0mph /  6.4km/h 8.0mph /  12.9km/h 55% 0.00in /  0mm
18:19 78.0 °F /  25.6 °C 61.0 °F /  16.1 °C 30.04in /  1017.2hPa SW 7.0mph /  11.3km/h 9.0mph /  14.5km/h 56% 0.00in /  0mm
18:24 77.8 °F /  25.4 °C 60.3 °F /  15.7 °C 30.04in /  1017.2hPa WSW 6.0mph /  9.7km/h 9.0mph /  14.5km/h 55% 0.00in /  0mm
18:29 77.6 °F /  25.3 °C 60.7 °F /  15.9 °C 30.04in /  1017.2hPa SW 5.0mph /  8km/h 9.0mph /  14.5km/h 56% 0.00in /  0mm
18:34 77.5 °F /  25.3 °C 61.1 °F /  16.2 °C 30.04in /  1017.2hPa WNW 7.0mph /  11.3km/h 10.0mph /  16.1km/h 57% 0.00in /  0mm
18:39 77.5 °F /  25.3 °C 60.6 °F /  15.9 °C 30.04in /  1017.2hPa WNW 4.0mph /  6.4km/h 8.0mph /  12.9km/h 56% 0.00in /  0mm
18:44 77.4 °F /  25.2 °C 60.5 °F /  15.8 °C 30.05in /  1017.5hPa West 4.0mph /  6.4km/h 9.0mph /  14.5km/h 56% 0.00in /  0mm
18:49 77.2 °F /  25.1 °C 59.8 °F /  15.4 °C 30.05in /  1017.5hPa WSW 4.0mph /  6.4km/h 9.0mph /  14.5km/h 55% 0.00in /  0mm
18:54 77.0 °F /  25 °C 60.1 °F /  15.6 °C 30.05in /  1017.5hPa SW 5.0mph /  8km/h 9.0mph /  14.5km/h 56% 0.00in /  0mm
18:59 76.7 °F /  24.8 °C 59.8 °F /  15.4 °C 30.05in /  1017.5hPa WSW 3.0mph /  4.8km/h 9.0mph /  14.5km/h 56% 0.00in /  0mm
19:04 76.9 °F /  24.9 °C 60.0 °F /  15.6 °C 30.05in /  1017.5hPa WSW 5.0mph /  8km/h 9.0mph /  14.5km/h 56% 0.00in /  0mm
19:09 76.6 °F /  24.8 °C 60.2 °F /  15.7 °C 30.05in /  1017.5hPa WSW 5.0mph /  8km/h 9.0mph /  14.5km/h 57% 0.00in /  0mm
19:14 76.7 °F /  24.8 °C 60.3 °F /  15.7 °C 30.05in /  1017.5hPa WSW 4.0mph /  6.4km/h 8.0mph /  12.9km/h 57% 0.00in /  0mm
19:19 76.5 °F /  24.7 °C 60.6 °F /  15.9 °C 30.04in /  1017.2hPa WSW 3.0mph /  4.8km/h 7.0mph /  11.3km/h 58% 0.00in /  0mm
19:24 76.4 °F /  24.7 °C 60.0 °F /  15.6 °C 30.04in /  1017.2hPa SW 2.0mph /  3.2km/h 7.0mph /  11.3km/h 57% 0.00in /  0mm
19:29 76.4 °F /  24.7 °C 60.5 °F /  15.8 °C 30.04in /  1017.2hPa SSW 1.0mph /  1.6km/h 5.0mph /  8km/h 58% 0.00in /  0mm
19:34 76.1 °F /  24.5 °C 60.2 °F /  15.7 °C 30.04in /  1017.2hPa SW 4.0mph /  6.4km/h 8.0mph /  12.9km/h 58% 0.00in /  0mm
19:39 76.1 °F /  24.5 °C 60.2 °F /  15.7 °C 30.04in /  1017.2hPa SW 3.0mph /  4.8km/h 8.0mph /  12.9km/h 58% 0.00in /  0mm
19:44 76.0 °F /  24.4 °C 60.6 °F /  15.9 °C 30.05in /  1017.5hPa SW 3.0mph /  4.8km/h 7.0mph /  11.3km/h 59% 0.00in /  0mm
19:49 75.8 °F /  24.3 °C 60.4 °F /  15.8 °C 30.05in /  1017.5hPa West 1.0mph /  1.6km/h 6.0mph /  9.7km/h 59% 0.00in /  0mm
19:54 75.7 °F /  24.3 °C 60.4 °F /  15.8 °C 30.05in /  1017.5hPa SW 2.0mph /  3.2km/h 7.0mph /  11.3km/h 59% 0.00in /  0mm
19:59 75.5 °F /  24.2 °C 60.6 °F /  15.9 °C 30.05in /  1017.5hPa SW 2.0mph /  3.2km/h 5.0mph /  8km/h 60% 0.00in /  0mm
20:04 75.4 °F /  24.1 °C 60.5 °F /  15.8 °C 30.04in /  1017.2hPa West 3.0mph /  4.8km/h 4.0mph /  6.4km/h 60% 0.00in /  0mm
20:09 75.1 °F /  23.9 °C 59.8 °F /  15.4 °C 30.05in /  1017.5hPa West 2.0mph /  3.2km/h 6.0mph /  9.7km/h 59% 0.00in /  0mm
20:14 75.0 °F /  23.9 °C 60.6 °F /  15.9 °C 30.05in /  1017.5hPa WSW 3.0mph /  4.8km/h 6.0mph /  9.7km/h 61% 0.00in /  0mm
20:19 74.9 °F /  23.8 °C 61.0 °F /  16.1 °C 30.05in /  1017.5hPa West 3.0mph /  4.8km/h 5.0mph /  8km/h 62% 0.00in /  0mm
20:24 74.6 °F /  23.7 °C 60.7 °F /  15.9 °C 30.05in /  1017.5hPa West 3.0mph /  4.8km/h 8.0mph /  12.9km/h 62% 0.00in /  0mm
20:29 74.4 °F /  23.6 °C 60.5 °F /  15.8 °C 30.05in /  1017.5hPa West 1.0mph /  1.6km/h 7.0mph /  11.3km/h 62% 0.00in /  0mm
20:34 74.4 °F /  23.6 °C 60.5 °F /  15.8 °C 30.04in /  1017.2hPa West 2.0mph /  3.2km/h 7.0mph /  11.3km/h 62% 0.00in /  0mm
20:39 74.0 °F /  23.3 °C 60.6 °F /  15.9 °C 30.04in /  1017.2hPa West 1.0mph /  1.6km/h 3.0mph /  4.8km/h 63% 0.00in /  0mm
20:44 73.6 °F /  23.1 °C 60.7 °F /  15.9 °C 30.05in /  1017.5hPa Calm   1.0mph /  1.6km/h 64% 0.00in /  0mm
20:49 73.2 °F /  22.9 °C 60.7 °F /  15.9 °C 30.05in /  1017.5hPa Calm   2.0mph /  3.2km/h 65% 0.00in /  0mm
20:54 72.8 °F /  22.7 °C 60.8 °F /  16 °C 30.05in /  1017.5hPa West 1.0mph /  1.6km/h 3.0mph /  4.8km/h 66% 0.00in /  0mm
20:59 72.9 °F /  22.7 °C 61.3 °F /  16.3 °C 30.04in /  1017.2hPa WSW 1.0mph /  1.6km/h 4.0mph /  6.4km/h 67% 0.00in /  0mm
21:04 72.8 °F /  22.7 °C 61.6 °F /  16.4 °C 30.04in /  1017.2hPa Calm   2.0mph /  3.2km/h 68% 0.00in /  0mm
21:09 72.4 °F /  22.4 °C 61.2 °F /  16.2 °C 30.04in /  1017.2hPa Calm   2.0mph /  3.2km/h 68% 0.00in /  0mm
21:14 72.2 °F /  22.3 °C 61.5 °F /  16.4 °C 30.05in /  1017.5hPa Calm     69% 0.00in /  0mm
21:19 71.9 °F /  22.2 °C 61.6 °F /  16.4 °C 30.04in /  1017.2hPa Calm     70% 0.00in /  0mm
21:24 71.7 °F /  22.1 °C 61.8 °F /  16.6 °C 30.04in /  1017.2hPa Calm     71% 0.00in /  0mm
21:29 71.3 °F /  21.8 °C 61.8 °F /  16.6 °C 30.05in /  1017.5hPa Calm     72% 0.00in /  0mm
21:34 71.0 °F /  21.7 °C 61.9 °F /  16.6 °C 30.05in /  1017.5hPa Calm     73% 0.00in /  0mm
21:44 70.7 °F /  21.5 °C 62.0 °F /  16.7 °C 30.05in /  1017.5hPa Calm     74% 0.00in /  0mm
21:49 70.5 °F /  21.4 °C 61.8 °F /  16.6 °C 30.05in /  1017.5hPa Calm     74% 0.00in /  0mm
21:54 70.3 °F /  21.3 °C 61.6 °F /  16.4 °C 30.05in /  1017.5hPa Calm     74% 0.00in /  0mm
21:59 69.9 °F /  21.1 °C 61.6 °F /  16.4 °C 30.05in /  1017.5hPa Calm     75% 0.00in /  0mm
22:04 69.8 °F /  21 °C 61.5 °F /  16.4 °C 30.05in /  1017.5hPa Calm     75% 0.00in /  0mm
22:09 69.6 °F /  20.9 °C 61.3 °F /  16.3 °C 30.05in /  1017.5hPa Calm     75% 0.00in /  0mm
22:14 69.4 °F /  20.8 °C 61.5 °F /  16.4 °C 30.05in /  1017.5hPa Calm     76% 0.00in /  0mm
22:19 69.2 °F /  20.7 °C 61.3 °F /  16.3 °C 30.05in /  1017.5hPa Calm     76% 0.00in /  0mm
22:24 69.1 °F /  20.6 °C 61.2 °F /  16.2 °C 30.05in /  1017.5hPa Calm     76% 0.00in /  0mm
22:29 68.8 °F /  20.4 °C 61.3 °F /  16.3 °C 30.05in /  1017.5hPa Calm     77% 0.00in /  0mm
22:34 68.7 °F /  20.4 °C 61.2 °F /  16.2 °C 30.05in /  1017.5hPa Calm     77% 0.00in /  0mm
22:39 68.5 °F /  20.3 °C 61.0 °F /  16.1 °C 30.05in /  1017.5hPa Calm     77% 0.00in /  0mm
22:44 68.1 °F /  20.1 °C 60.6 °F /  15.9 °C 30.05in /  1017.5hPa Calm     77% 0.00in /  0mm
22:49 68.0 °F /  20 °C 60.9 °F /  16.1 °C 30.05in /  1017.5hPa Calm     78% 0.00in /  0mm
22:54 68.0 °F /  20 °C 60.9 °F /  16.1 °C 30.05in /  1017.5hPa Calm     78% 0.00in /  0mm
22:59 67.7 °F /  19.8 °C 60.6 °F /  15.9 °C 30.05in /  1017.5hPa Calm     78% 0.00in /  0mm
23:04 67.6 °F /  19.8 °C 60.9 °F /  16.1 °C 30.05in /  1017.5hPa Calm     79% 0.00in /  0mm
23:09 67.6 °F /  19.8 °C 60.9 °F /  16.1 °C 30.05in /  1017.5hPa Calm     79% 0.00in /  0mm
23:14 67.5 °F /  19.7 °C 60.4 °F /  15.8 °C 30.05in /  1017.5hPa Calm     78% 0.00in /  0mm
23:19 67.5 °F /  19.7 °C 60.0 °F /  15.6 °C 30.05in /  1017.5hPa Calm     77% 0.00in /  0mm
23:24 67.4 °F /  19.7 °C 59.6 °F /  15.3 °C 30.05in /  1017.5hPa Calm     76% 0.00in /  0mm
23:29 67.2 °F /  19.6 °C 59.0 °F /  15 °C 30.05in /  1017.5hPa Calm     75% 0.00in /  0mm
23:34 66.9 °F /  19.4 °C 58.3 °F /  14.6 °C 30.05in /  1017.5hPa Calm     74% 0.00in /  0mm
23:39 66.8 °F /  19.3 °C 58.2 °F /  14.6 °C 30.05in /  1017.5hPa Calm     74% 0.00in /  0mm
23:44 66.7 °F /  19.3 °C 58.1 °F /  14.5 °C 30.05in /  1017.5hPa Calm     74% 0.00in /  0mm
23:49 66.3 °F /  19.1 °C 58.1 °F /  14.5 °C 30.05in /  1017.5hPa Calm     75% 0.00in /  0mm
23:54 66.1 °F /  18.9 °C 57.9 °F /  14.4 °C 30.05in /  1017.5hPa Calm     75% 0.00in /  0mm
23:59 66.1 °F /  18.9 °C 57.9 °F /  14.4 °C 30.05in /  1017.5hPa Calm     75% 0.00in /  0mm
Buffalo, New York, USA
Compliments of Weather Underground - 2.5 mb